Time;durP1;ratioP1;P1;durP2;ratioP2;P2;SDS_P1;SDS_P2;PMS_P1;PMS_P2;Temp;Humidity;BMP_temperature;BMP_pressure;BME280_temperature;BME280_humidity;BME280_pressure;Samples;Min_cycle;Max_cycle;Signal;HPM_P1;HPM_P2
2022/09/30 00:00:16;;;;;;;6.70;4.90;;;;;;;17.00;74.97;99596.09;5087928;28;20728;-29
2022/09/30 00:02:42;;;;;;;9.85;5.00;;;;;;;17.13;75.31;99611.72;5087759;28;20560;-28
2022/09/30 00:05:07;;;;;;;10.82;5.75;;;;;;;17.10;75.61;99608.75;5087967;28;20454;-27
2022/09/30 00:07:33;;;;;;;8.27;5.18;;;;;;;17.44;76.24;99620.50;5087974;28;20052;-28
2022/09/30 00:09:58;;;;;;;8.07;5.05;;;;;;;17.43;75.59;99607.31;5087907;28;20028;-29
2022/09/30 00:12:26;;;;;;;8.55;5.18;;;;;;;17.70;74.76;99623.09;5087997;28;20824;-26
2022/09/30 00:14:51;;;;;;;9.17;5.27;;;;;;;17.56;73.97;99622.88;5069586;28;20024;-29
2022/09/30 00:17:17;;;;;;;8.07;4.97;;;;;;;17.58;73.95;99636.91;5087489;28;20023;-28
2022/09/30 00:19:42;;;;;;;7.72;4.82;;;;;;;17.71;75.00;99635.50;5069760;28;20561;-30
2022/09/30 00:22:08;;;;;;;11.13;5.15;;;;;;;17.64;73.83;99635.00;5069043;28;20020;-28
2022/09/30 00:24:33;;;;;;;9.45;5.78;;;;;;;17.41;74.23;99633.75;5088084;28;20028;-29
2022/09/30 00:26:59;;;;;;;8.93;5.13;;;;;;;17.07;75.22;99612.81;5087578;28;20024;-28
2022/09/30 00:29:24;;;;;;;8.88;5.78;;;;;;;17.37;76.13;99640.75;5087313;28;20028;-29
2022/09/30 00:31:49;;;;;;;9.73;5.93;;;;;;;17.52;74.41;99638.00;5087192;28;20685;-27
2022/09/30 00:34:17;;;;;;;15.80;7.03;;;;;;;17.11;72.85;99627.34;5087478;28;20081;-29
2022/09/30 00:36:47;;;;;;;15.05;6.90;;;;;;;17.21;76.06;99653.47;5087597;28;20059;-27
2022/09/30 00:39:21;;;;;;;11.20;5.88;;;;;;;17.05;77.58;99631.13;5087448;28;20053;-28
2022/09/30 00:42:01;;;;;;;10.70;6.50;;;;;;;17.06;74.89;99646.19;5087138;28;20031;-29
2022/09/30 00:45:02;;;;;;;9.48;6.00;;;;;;;17.31;75.23;99641.84;5087877;28;20035;-31
2022/09/30 00:48:06;;;;;;;10.75;5.65;;;;;;;16.91;74.77;99627.38;5087276;28;20055;-27
2022/09/30 00:50:45;;;;;;;20.67;7.30;;;;;;;16.93;74.80;99630.59;5076177;28;20126;-28
2022/09/30 00:53:29;;;;;;;8.75;5.95;;;;;;;16.94;75.66;99642.97;5087469;28;20027;-30
2022/09/30 00:56:00;;;;;;;10.30;6.30;;;;;;;16.86;76.11;99641.66;5086994;28;20028;-28
2022/09/30 00:58:41;;;;;;;10.68;5.90;;;;;;;16.97;75.84;99639.75;5086905;28;20122;-26
2022/09/30 01:01:08;;;;;;;9.07;5.68;;;;;;;16.89;77.10;99629.53;5087265;28;20074;-28
2022/09/30 01:03:43;;;;;;;11.88;5.93;;;;;;;17.12;75.23;99634.34;5087389;28;20051;-27
2022/09/30 01:06:09;;;;;;;12.35;6.50;;;;;;;16.95;75.64;99655.38;5086601;28;20063;-28
2022/09/30 01:08:38;;;;;;;10.07;6.18;;;;;;;17.09;75.08;99667.22;5087142;28;20047;-27
2022/09/30 01:11:03;;;;;;;10.38;6.47;;;;;;;17.01;75.93;99651.59;5086897;28;20054;-28
2022/09/30 01:13:32;;;;;;;10.48;5.75;;;;;;;16.77;77.14;99670.16;5087131;28;20056;-29
2022/09/30 01:16:20;;;;;;;9.70;5.72;;;;;;;16.74;78.63;99671.53;5086472;28;20039;-30
2022/09/30 01:19:29;;;;;;;10.07;5.85;;;;;;;16.80;75.99;99646.22;5086186;28;20119;-27
2022/09/30 01:22:30;;;;;;;8.88;6.22;;;;;;;16.78;75.23;99661.81;5068712;28;20424;-27
2022/09/30 01:25:16;;;;;;;8.15;5.07;;;;;;;16.60;75.96;99657.78;5086862;28;20040;-28
2022/09/30 01:28:13;;;;;;;7.55;5.25;;;;;;;16.53;74.97;99664.50;5068890;28;20040;-29
2022/09/30 01:30:57;;;;;;;;;;;;;;;16.32;75.47;99664.47;5028766;28;20039;-33
2022/09/30 01:33:31;;;;;;;9.07;4.93;;;;;;;16.68;77.90;99668.00;5087019;28;19973;-28
2022/09/30 01:35:59;;;;;;;9.25;5.32;;;;;;;16.46;79.63;99687.09;5086479;28;20035;-29
2022/09/30 01:38:29;;;;;;;7.90;5.38;;;;;;;16.72;76.44;99673.66;5086578;28;20073;-30
2022/09/30 01:41:04;;;;;;;9.38;6.15;;;;;;;16.60;77.23;99668.53;5087182;28;20570;-27
2022/09/30 01:43:40;;;;;;;8.45;4.90;;;;;;;16.68;77.84;99661.81;5086805;28;20073;-28
2022/09/30 01:46:36;;;;;;;9.52;5.43;;;;;;;16.36;79.38;99681.69;5086516;28;20040;-29
2022/09/30 01:49:26;;;;;;;7.88;5.05;;;;;;;16.53;79.52;99692.25;5073057;28;20036;-28
2022/09/30 01:52:04;;;;;;;7.85;4.85;;;;;;;16.40;78.96;99681.97;5086528;28;20039;-27
2022/09/30 01:54:46;;;;;;;8.50;5.43;;;;;;;16.17;78.29;99664.47;5086508;28;20032;-27
2022/09/30 01:57:19;;;;;;;8.23;5.32;;;;;;;15.98;78.54;99675.69;5086355;28;20036;-26
2022/09/30 01:59:50;;;;;;;9.77;5.15;;;;;;;15.62;80.18;99680.09;5086336;28;20451;-27
2022/09/30 02:02:20;;;;;;;8.77;5.35;;;;;;;15.82;78.03;99665.97;5086442;28;20039;-27
2022/09/30 02:04:57;;;;;;;11.05;5.57;;;;;;;16.08;77.84;99664.16;5086436;28;20032;-27
2022/09/30 02:07:38;;;;;;;9.67;5.57;;;;;;;16.11;79.19;99668.22;5086541;28;20056;-30
2022/09/30 02:10:15;;;;;;;9.60;5.40;;;;;;;16.05;77.79;99653.94;5087795;28;20415;-28
2022/09/30 02:12:48;;;;;;;9.75;5.63;;;;;;;16.17;77.27;99670.63;5071935;28;20023;-28
2022/09/30 02:15:21;;;;;;;9.25;5.13;;;;;;;16.23;78.89;99677.66;5090169;28;20040;-28
2022/09/30 02:18:10;;;;;;;10.80;5.70;;;;;;;16.14;77.10;99681.94;5089755;28;20608;-28
2022/09/30 02:20:40;;;;;;;7.50;5.07;;;;;;;15.74;78.00;99690.66;5075332;28;20114;-27
2022/09/30 02:23:11;;;;;;;6.78;4.60;;;;;;;15.74;80.00;99693.34;5071543;28;20032;-27
2022/09/30 02:25:51;;;;;;;9.02;4.68;;;;;;;15.65;79.86;99685.75;5089883;28;20035;-28
2022/09/30 02:28:25;;;;;;;6.72;4.13;;;;;;;16.56;77.71;99674.75;5089507;28;20028;-28
2022/09/30 02:30:55;;;;;;;8.15;4.63;;;;;;;16.74;75.32;99674.22;5089916;28;20487;-27
2022/09/30 02:33:39;;;;;;;7.38;5.15;;;;;;;15.58;78.11;99687.06;5089756;28;20028;-29
2022/09/30 02:36:15;;;;;;;9.30;5.40;;;;;;;15.20;80.57;99686.28;5089401;28;20020;-27
2022/09/30 02:38:45;;;;;;;8.80;5.22;;;;;;;15.67;81.02;99701.59;5071166;28;20491;-28
2022/09/30 02:41:15;;;;;;;9.18;5.20;;;;;;;16.01;80.29;99715.50;5089729;28;20028;-29
2022/09/30 02:43:41;;;;;;;8.50;5.50;;;;;;;15.95;77.43;99713.88;5089499;28;20031;-28
2022/09/30 02:46:33;;;;;;;10.82;5.43;;;;;;;15.81;76.77;99710.88;5089177;28;20085;-28
2022/09/30 02:49:12;;;;;;;8.38;5.28;;;;;;;15.64;79.94;99700.25;5089474;28;20028;-28
2022/09/30 02:51:53;;;;;;;9.93;5.28;;;;;;;14.56;82.59;99682.56;5089458;28;20028;-26
2022/09/30 02:54:58;;;;;;;9.57;5.07;;;;;;;15.10;82.39;99692.41;5071146;28;20889;-26
2022/09/30 02:57:51;;;;;;;9.63;5.10;;;;;;;15.42;80.18;99683.47;5086966;28;20032;-27
2022/09/30 03:00:17;;;;;;;10.43;5.25;;;;;;;15.37;81.66;99668.13;5089165;28;20111;-28
2022/09/30 03:02:42;;;;;;;7.63;4.68;;;;;;;15.29;80.54;99702.75;5089305;28;20032;-27
2022/09/30 03:05:08;;;;;;;9.63;4.88;;;;;;;15.32;79.61;99694.16;5088921;28;20028;-27
2022/09/30 03:07:34;;;;;;;6.97;5.03;;;;;;;15.16;81.35;99683.31;5088694;28;20073;-30
2022/09/30 03:10:00;;;;;;;8.90;5.25;;;;;;;15.45;81.13;99699.09;5088490;28;20028;-28
2022/09/30 03:12:50;;;;;;;11.57;5.13;;;;;;;15.41;80.27;99712.22;5089034;28;20065;-27
2022/09/30 03:15:20;;;;;;;9.93;4.93;;;;;;;15.34;80.51;99718.88;5088677;28;20028;-26
2022/09/30 03:17:59;;;;;;;9.32;5.28;;;;;;;15.49;82.01;99727.06;5089136;28;20036;-28
2022/09/30 03:20:33;;;;;;;10.45;5.88;;;;;;;15.39;81.74;99733.16;5088489;28;20054;-27
2022/09/30 03:23:22;;;;;;;9.82;6.57;;;;;;;15.33;82.71;99733.41;5089048;28;20055;-27
2022/09/30 03:26:00;;;;;;;9.68;5.97;;;;;;;15.13;83.22;99745.59;5070363;28;20032;-28
2022/09/30 03:28:35;;;;;;;10.13;5.68;;;;;;;15.26;82.51;99742.50;5088736;28;20123;-30
2022/09/30 03:31:04;;;;;;;8.85;5.97;;;;;;;15.30;81.48;99741.97;5088617;28;20094;-27
2022/09/30 03:34:06;;;;;;;12.00;6.00;;;;;;;15.16;83.08;99749.66;5088678;28;20796;-29
2022/09/30 03:36:52;;;;;;;11.30;6.15;;;;;;;15.30;82.36;99752.72;5087932;28;20036;-27
2022/09/30 03:39:23;;;;;;;10.05;6.03;;;;;;;15.27;82.00;99749.47;5088254;28;20036;-29
2022/09/30 03:42:06;;;;;;;9.93;5.80;;;;;;;15.25;82.48;99727.44;5088553;28;20609;-27
2022/09/30 03:44:40;;;;;;;8.57;5.68;;;;;;;15.24;83.22;99722.31;5088561;28;20043;-27
2022/09/30 03:47:10;;;;;;;9.45;6.28;;;;;;;15.46;82.47;99743.69;5088303;28;20028;-29
2022/09/30 03:49:42;;;;;;;12.55;6.13;;;;;;;15.55;81.34;99731.41;5088086;28;20028;-30
2022/09/30 03:52:11;;;;;;;10.18;6.50;;;;;;;15.46;80.22;99732.94;5088120;28;20032;-27
2022/09/30 03:54:57;;;;;;;8.40;6.03;;;;;;;15.48;80.61;99746.94;5088152;28;20070;-28
2022/09/30 03:57:25;;;;;;;9.35;5.97;;;;;;;15.72;80.25;99762.66;5088358;28;20109;-27
2022/09/30 03:59:50;;;;;;;13.07;6.70;;;;;;;15.79;79.60;99765.94;5087869;28;20089;-29
2022/09/30 04:02:16;;;;;;;9.82;6.18;;;;;;;15.76;80.01;99761.91;5087632;28;20039;-29
2022/09/30 04:04:41;;;;;;;12.23;6.13;;;;;;;15.53;80.72;99749.66;5069977;28;20040;-27
2022/09/30 04:07:09;;;;;;;10.68;6.25;;;;;;;15.47;80.77;99750.69;5087998;28;20607;-27
2022/09/30 04:09:35;;;;;;;10.27;5.93;;;;;;;15.69;79.25;99747.84;5088119;28;20032;-27
2022/09/30 04:12:01;;;;;;;10.55;6.63;;;;;;;15.37;78.93;99745.25;5087596;28;20708;-29
2022/09/30 04:14:27;;;;;;;10.07;6.95;;;;;;;15.32;79.40;99761.31;5087815;28;20028;-29
2022/09/30 04:16:52;;;;;;;14.07;6.30;;;;;;;15.40;80.99;99760.84;5087622;28;20028;-29
2022/09/30 04:19:17;;;;;;;12.75;6.15;;;;;;;15.25;79.99;99738.19;5087964;28;20028;-30
2022/09/30 04:21:43;;;;;;;10.35;6.40;;;;;;;15.11;82.04;99755.78;5087856;28;20039;-28
2022/09/30 04:24:08;;;;;;;12.65;6.55;;;;;;;15.11;82.32;99753.09;5069175;28;20085;-27
2022/09/30 04:26:34;;;;;;;9.82;6.20;;;;;;;14.88;82.12;99740.03;5087583;28;20031;-28
2022/09/30 04:28:59;;;;;;;12.30;7.03;;;;;;;15.16;79.27;99755.84;5087687;28;20095;-28
2022/09/30 04:31:25;;;;;;;13.48;6.18;;;;;;;15.05;79.48;99765.69;5087627;28;20043;-27
2022/09/30 04:33:50;;;;;;;13.98;6.82;;;;;;;14.94;80.48;99747.06;5086706;28;20846;-28
2022/09/30 04:36:16;;;;;;;16.75;7.53;;;;;;;15.17;80.63;99762.81;5087401;28;20036;-27
2022/09/30 04:38:42;;;;;;;11.73;7.30;;;;;;;15.46;80.06;99771.38;5087612;28;20035;-27
2022/09/30 04:41:14;;;;;;;11.40;6.25;;;;;;;15.18;79.30;99759.09;5087458;28;20028;-27
2022/09/30 04:43:43;;;;;;;16.52;7.00;;;;;;;15.16;77.97;99776.50;5087338;28;20085;-29
2022/09/30 04:46:09;;;;;;;14.18;6.63;;;;;;;14.95;78.60;99786.25;5087286;28;20036;-28
2022/09/30 04:48:34;;;;;;;13.75;6.88;;;;;;;14.95;81.33;99792.44;5087540;28;20073;-26
2022/09/30 04:51:00;;;;;;;12.40;7.50;;;;;;;14.75;81.23;99787.72;5087223;28;20024;-31
2022/09/30 04:53:25;;;;;;;10.35;6.50;;;;;;;14.83;81.73;99789.09;5087415;28;20024;-27
2022/09/30 04:55:57;;;;;;;14.85;6.90;;;;;;;14.96;80.22;99787.91;5087282;28;20476;-28
2022/09/30 04:58:23;;;;;;;11.65;7.07;;;;;;;14.94;80.85;99795.41;5087061;28;20412;-27
2022/09/30 05:00:48;;;;;;;13.32;7.90;;;;;;;14.98;81.25;99783.09;5087664;28;20484;-29
2022/09/30 05:03:14;;;;;;;12.70;7.18;;;;;;;14.95;81.31;99787.06;5087398;28;20385;-27
2022/09/30 05:05:43;;;;;;;13.57;7.15;;;;;;;15.12;82.43;99797.72;5087113;28;20420;-27
2022/09/30 05:08:08;;;;;;;12.90;6.63;;;;;;;15.18;83.05;99785.94;5086825;28;20032;-28
2022/09/30 05:10:34;;;;;;;16.55;7.18;;;;;;;15.44;82.05;99802.25;5087156;28;20082;-27
2022/09/30 05:12:59;;;;;;;14.52;6.40;;;;;;;15.73;79.69;99807.31;5086840;28;20081;-27
2022/09/30 05:15:25;;;;;;;16.38;7.13;;;;;;;15.79;80.08;99833.16;5086937;28;20044;-28
2022/09/30 05:17:51;;;;;;;14.07;7.18;;;;;;;15.98;79.32;99828.19;5086834;28;20031;-27
2022/09/30 05:20:17;;;;;;;15.13;6.75;;;;;;;16.37;76.63;99833.22;5086868;28;20358;-28
2022/09/30 05:22:42;;;;;;;12.35;6.75;;;;;;;16.40;77.67;99838.88;5086922;28;20499;-28
2022/09/30 05:25:08;;;;;;;12.18;6.88;;;;;;;16.40;77.54;99843.47;5086794;28;20408;-27
2022/09/30 05:27:33;;;;;;;12.25;7.20;;;;;;;16.44;77.14;99837.28;5086691;28;20411;-26
2022/09/30 05:29:59;;;;;;;12.98;6.97;;;;;;;16.59;77.32;99841.94;5086991;28;20029;-27
2022/09/30 05:32:25;;;;;;;16.60;6.82;;;;;;;17.15;75.04;99843.97;5087081;28;20028;-27
2022/09/30 05:34:50;;;;;;;11.18;6.47;;;;;;;17.06;74.71;99843.69;5086571;28;20687;-27
2022/09/30 05:37:16;;;;;;;12.20;6.97;;;;;;;16.98;74.38;99843.38;5086902;28;20117;-29
2022/09/30 05:39:41;;;;;;;12.82;6.78;;;;;;;17.05;74.77;99873.59;5086899;28;20043;-27
2022/09/30 05:42:07;;;;;;;12.10;6.93;;;;;;;17.14;72.94;99874.69;5086447;28;20028;-26
2022/09/30 05:44:32;;;;;;;16.75;13.85;;;;;;;16.88;74.55;99876.50;5089523;28;20716;-28
2022/09/30 05:46:58;;;;;;;20.60;14.98;;;;;;;16.97;75.18;99856.06;5090843;28;20028;-28
2022/09/30 05:49:25;;;;;;;17.80;12.13;;;;;;;17.25;74.47;99860.16;5090834;28;20032;-28
2022/09/30 05:51:50;;;;;;;16.73;12.88;;;;;;;17.45;73.39;99851.25;5090330;28;20028;-27
2022/09/30 05:54:16;;;;;;;17.95;12.35;;;;;;;17.70;73.18;99854.22;5090861;28;20050;-28
2022/09/30 05:56:41;;;;;;;17.88;12.18;;;;;;;17.79;72.75;99847.19;5090119;28;20024;-27
2022/09/30 05:59:07;;;;;;;16.38;12.45;;;;;;;17.80;72.16;99843.44;5090863;28;20031;-28
2022/09/30 06:01:32;;;;;;;13.93;11.95;;;;;;;18.04;71.42;99866.06;5090567;28;20032;-26
2022/09/30 06:03:58;;;;;;;18.27;11.50;;;;;;;18.10;72.43;99868.75;5090009;28;20114;-28
2022/09/30 06:06:24;;;;;;;17.13;11.82;;;;;;;18.32;71.50;99871.13;5090574;28;20135;-28
2022/09/30 06:08:50;;;;;;;23.38;20.05;;;;;;;18.38;71.64;99873.53;5090114;28;20124;-30
2022/09/30 06:11:18;;;;;;;23.08;14.90;;;;;;;18.33;71.62;99854.66;5090183;28;20368;-28
2022/09/30 06:13:46;;;;;;;13.30;9.70;;;;;;;18.61;70.19;99871.28;5090491;28;20075;-28
2022/09/30 06:16:12;;;;;;;13.48;8.73;;;;;;;18.56;70.59;99865.91;5090406;28;20035;-29
2022/09/30 06:18:40;;;;;;;11.90;8.82;;;;;;;18.82;70.45;99875.53;5090115;28;20403;-29
2022/09/30 06:21:06;;;;;;;14.77;7.95;;;;;;;19.05;69.72;99868.63;5090273;28;20082;-27
2022/09/30 06:23:35;;;;;;;14.75;8.88;;;;;;;19.16;69.51;99863.97;5090143;28;20024;-28
2022/09/30 06:26:03;;;;;;;18.45;11.60;;;;;;;19.51;69.47;99882.91;5071401;28;20554;-28
2022/09/30 06:28:28;;;;;;;13.13;8.90;;;;;;;19.71;68.12;99873.88;5090285;28;20028;-29
2022/09/30 06:30:54;;;;;;;12.00;7.35;;;;;;;19.77;67.62;99880.84;5089954;28;20105;-28
2022/09/30 06:33:20;;;;;;;12.10;7.78;;;;;;;19.78;67.88;99879.78;5089994;28;20036;-30
2022/09/30 06:35:46;;;;;;;12.10;6.82;;;;;;;19.74;67.13;99873.31;5089621;28;20031;-32
2022/09/30 06:38:14;;;;;;;12.50;7.13;;;;;;;19.96;66.01;99886.34;5071806;28;20030;-28
2022/09/30 06:40:40;;;;;;;12.50;7.28;;;;;;;20.32;65.70;99889.50;5089656;28;20036;-32
2022/09/30 06:43:06;;;;;;;13.23;6.90;;;;;;;20.48;65.47;99893.63;5090041;28;20024;-28
2022/09/30 06:45:34;;;;;;;11.32;6.68;;;;;;;20.73;64.80;99902.56;5090126;28;20043;-27
2022/09/30 06:48:00;;;;;;;;;;;;;;;20.90;64.83;99893.94;5090102;28;20062;-29
2022/09/30 06:50:25;;;;;;;13.38;6.90;;;;;;;20.91;64.89;99895.56;5089580;28;19951;-27
2022/09/30 06:52:51;;;;;;;10.25;6.55;;;;;;;20.91;64.35;99889.34;5089261;28;20043;-29
2022/09/30 06:55:21;;;;;;;9.27;5.85;;;;;;;21.06;63.71;99914.34;5088921;28;20128;-28
2022/09/30 06:57:46;;;;;;;10.40;5.63;;;;;;;20.96;63.79;99913.66;5089409;28;20024;-29
2022/09/30 07:00:14;;;;;;;10.02;6.40;;;;;;;21.16;63.07;99926.16;5089575;28;20089;-28
2022/09/30 07:02:39;;;;;;;10.23;5.25;;;;;;;21.35;62.75;99931.56;5089225;28;20523;-27
2022/09/30 07:05:05;;;;;;;9.95;6.20;;;;;;;21.16;62.63;99907.97;5089342;28;20051;-31
2022/09/30 07:07:34;;;;;;;11.30;7.72;;;;;;;21.32;63.13;99932.97;5088570;28;20058;-27
2022/09/30 07:10:00;;;;;;;10.43;7.40;;;;;;;21.46;62.24;99933.06;5089253;28;20038;-34
2022/09/30 07:12:25;;;;;;;13.30;8.65;;;;;;;21.49;62.55;99907.25;5089435;28;20020;-30
2022/09/30 07:14:51;;;;;;;15.30;9.45;;;;;;;21.43;63.86;99928.22;5088901;28;20114;-29
2022/09/30 07:17:17;;;;;;;15.85;9.65;;;;;;;21.41;63.73;99923.06;5089084;28;20032;-28
2022/09/30 07:19:42;;;;;;;13.63;9.32;;;;;;;21.46;65.11;99933.06;5070465;28;20472;-28
2022/09/30 07:22:27;;;;;;;16.38;9.85;;;;;;;21.55;63.37;99936.72;5088427;28;20036;-27
2022/09/30 07:24:53;;;;;;;13.55;8.45;;;;;;;21.80;64.19;99942.81;5088977;28;20062;-29
2022/09/30 07:27:19;;;;;;;19.65;8.45;;;;;;;22.08;62.90;99941.78;5088195;28;20028;-29
2022/09/30 07:29:45;;;;;;;14.57;7.68;;;;;;;22.21;61.86;99947.56;5088622;28;20885;-28
2022/09/30 07:32:11;;;;;;;13.65;6.93;;;;;;;22.44;60.57;99946.63;5088455;28;20043;-28
2022/09/30 07:34:41;;;;;;;10.60;6.78;;;;;;;22.30;61.37;99934.94;5088558;28;20035;-28
2022/09/30 07:37:08;;;;;;;8.20;5.35;;;;;;;22.44;59.95;99946.63;5089177;28;20582;-27
2022/09/30 07:39:34;;;;;;;7.07;5.10;;;;;;;22.66;57.69;99942.41;5088818;28;20032;-27
2022/09/30 07:42:01;;;;;;;7.47;5.30;;;;;;;22.66;58.65;99936.97;5088528;28;20392;-28
2022/09/30 07:44:27;;;;;;;8.13;4.75;;;;;;;22.79;56.91;99936.13;5088549;28;20060;-29
2022/09/30 07:46:53;;;;;;;8.88;4.45;;;;;;;22.90;55.10;99936.72;5088423;28;20035;-30
2022/09/30 07:49:24;;;;;;;6.13;4.40;;;;;;;23.02;55.30;99933.53;5088408;28;20030;-27
2022/09/30 07:51:51;;;;;;;7.50;5.00;;;;;;;23.30;56.69;99950.59;5088360;28;20028;-29
2022/09/30 07:54:21;;;;;;;8.32;5.15;;;;;;;23.11;55.43;99941.75;5088749;28;20051;-30
2022/09/30 07:56:47;;;;;;;8.48;4.57;;;;;;;23.21;54.35;99953.25;5088426;28;20042;-28
2022/09/30 07:59:13;;;;;;;10.30;4.50;;;;;;;23.15;54.02;99942.75;5088380;28;20031;-27
2022/09/30 08:01:39;;;;;;;10.45;4.40;;;;;;;23.41;54.82;99959.31;5087949;28;20028;-27
2022/09/30 08:04:07;;;;;;;8.95;4.78;;;;;;;23.62;53.83;99960.47;5088478;28;20047;-28
2022/09/30 08:06:36;;;;;;;;;;;;;;;23.54;55.00;99966.63;5088273;28;20059;-27
2022/09/30 08:09:02;;;;;;;8.38;3.90;;;;;;;23.47;53.99;99956.16;5087823;28;19919;-27
2022/09/30 08:11:32;;;;;;;7.30;4.28;;;;;;;23.98;53.25;99970.50;5070140;28;20479;-27
2022/09/30 08:13:58;;;;;;;6.53;3.85;;;;;;;24.20;53.90;99968.88;5087981;28;20032;-29
2022/09/30 08:16:24;;;;;;;7.03;3.90;;;;;;;24.29;52.38;99955.28;5087708;28;20051;-28
2022/09/30 08:18:57;;;;;;;5.82;4.00;;;;;;;24.43;50.95;99964.97;5088090;28;20040;-31
2022/09/30 08:21:23;;;;;;;5.97;4.00;;;;;;;24.40;52.34;99975.72;5088222;28;20024;-28
2022/09/30 08:23:49;;;;;;;6.13;4.15;;;;;;;24.33;50.89;99962.50;5087835;28;20106;-28
2022/09/30 08:26:15;;;;;;;5.88;4.10;;;;;;;24.32;51.84;99955.47;5087979;28;20106;-28
2022/09/30 08:28:41;;;;;;;6.70;4.10;;;;;;;24.52;52.36;99972.41;5087779;28;20028;-31
2022/09/30 08:31:11;;;;;;;5.63;3.92;;;;;;;24.94;52.01;99972.88;5088001;28;20752;-31
2022/09/30 08:33:38;;;;;;;8.48;4.13;;;;;;;24.68;50.46;99968.13;5087930;28;20047;-30
2022/09/30 08:36:04;;;;;;;6.90;4.13;;;;;;;24.73;51.11;99978.13;5087523;28;20028;-28
2022/09/30 08:38:30;;;;;;;7.63;4.53;;;;;;;24.92;50.66;99986.81;5087913;28;20028;-28
2022/09/30 08:41:30;;;;;;;7.35;3.85;;;;;;;25.07;47.82;99977.41;5087738;28;20387;-28
2022/09/30 08:44:08;;;;;;;7.18;4.10;;;;;;;25.37;49.17;99983.06;5087360;28;20039;-29
2022/09/30 08:46:54;;;;;;;8.30;3.80;;;;;;;25.57;48.42;99979.72;5087681;28;20028;-27
2022/09/30 08:49:45;;;;;;;8.33;4.50;;;;;;;25.67;48.78;99973.91;5087546;28;20119;-28
2022/09/30 08:52:26;;;;;;;8.00;4.10;;;;;;;25.59;48.37;99976.66;5069015;28;20270;-28
2022/09/30 08:54:54;;;;;;;7.75;4.35;;;;;;;25.60;48.83;99973.63;5087580;28;20127;-28
2022/09/30 08:57:20;;;;;;;;;;;;;;;26.04;48.08;99982.56;5087804;28;20035;-30
2022/09/30 08:59:51;;;;;;;7.00;4.20;;;;;;;26.14;46.90;99983.38;5087378;28;19907;-31
2022/09/30 09:02:26;;;;;;;8.30;4.65;;;;;;;26.15;46.05;99993.16;5087157;28;20040;-29
2022/09/30 09:04:56;;;;;;;9.43;4.95;;;;;;;25.95;46.71;99965.41;5087583;28;20032;-28
2022/09/30 09:07:36;;;;;;;7.57;4.32;;;;;;;26.21;44.95;99980.94;5087092;28;20055;-28
2022/09/30 09:10:22;;;;;;;7.55;4.07;;;;;;;26.17;45.67;99988.19;5068865;28;20028;-29
2022/09/30 09:13:10;;;;;;;6.55;4.50;;;;;;;26.64;44.77;99977.25;5088006;28;20055;-28
2022/09/30 09:15:41;;;;;;;6.28;4.07;;;;;;;26.76;45.18;99985.56;5087351;28;20035;-28
2022/09/30 09:18:46;;;;;;;10.15;4.35;;;;;;;26.70;43.82;99991.56;5088038;28;20097;-28
2022/09/30 09:22:00;;;;;;;7.22;3.40;;;;;;;26.67;43.61;99993.03;5094437;28;20123;-28
2022/09/30 09:24:40;;;;;;;5.28;3.33;;;;;;;27.02;44.05;99990.09;5054629;28;20048;-29
2022/09/30 09:27:20;;;;;;;10.73;4.15;;;;;;;27.46;43.32;99990.63;5093725;28;20076;-29
2022/09/30 09:30:06;;;;;;;6.28;3.85;;;;;;;27.52;42.32;99983.81;5094202;28;20023;-29
2022/09/30 09:32:33;;;;;;;7.25;4.13;;;;;;;27.65;42.12;99974.53;5075658;28;20032;-28
2022/09/30 09:35:25;;;;;;;8.20;3.92;;;;;;;27.38;41.18;99989.56;5094161;28;20081;-30
2022/09/30 09:38:24;;;;;;;10.55;3.95;;;;;;;27.53;43.12;99985.41;5093807;28;20032;-28
2022/09/30 09:41:18;;;;;;;7.60;4.10;;;;;;;27.52;42.26;99985.75;5082043;28;20048;-28
2022/09/30 09:43:47;;;;;;;9.38;3.97;;;;;;;27.71;41.13;99999.00;5073187;28;20073;-30
2022/09/30 09:46:34;;;;;;;6.80;3.92;;;;;;;27.79;41.52;99998.09;5073486;28;20172;-28
2022/09/30 09:49:12;;;;;;;10.07;4.78;;;;;;;27.98;40.82;99990.19;5073149;28;20099;-31
2022/09/30 09:51:40;;;;;;;;;;;;;;;28.19;40.77;99995.63;5073679;28;20039;-28
2022/09/30 09:54:09;;;;;;;5.97;3.72;;;;;;;28.05;40.24;99990.47;5054648;28;19916;-30
2022/09/30 09:56:36;;;;;;;6.15;3.70;;;;;;;28.47;39.64;100005.16;5073063;28;20025;-28
2022/09/30 09:59:06;;;;;;;6.22;3.50;;;;;;;28.73;39.56;100013.91;5073230;28;20464;-29
2022/09/30 10:01:33;;;;;;;6.50;3.60;;;;;;;28.52;38.63;99983.00;5073656;28;20025;-29
2022/09/30 10:04:09;;;;;;;;;;;;;;;28.51;39.40;99995.94;5073476;28;20046;-31
2022/09/30 10:06:48;;;;;;;16.33;3.90;;;;;;;28.52;39.13;99996.72;5072964;28;19924;-30
2022/09/30 10:09:37;;;;;;;6.47;3.95;;;;;;;28.79;37.46;99989.75;5073400;28;20028;-28
2022/09/30 10:12:05;;;;;;;6.53;3.55;;;;;;;28.99;37.70;99982.53;5073568;28;20118;-32
2022/09/30 10:14:46;;;;;;;7.88;3.63;;;;;;;28.84;37.61;99998.56;5073263;28;20512;-28
2022/09/30 10:17:33;;;;;;;7.97;3.33;;;;;;;29.21;38.30;99978.53;5073150;28;20039;-29
2022/09/30 10:20:22;;;;;;;8.27;3.65;;;;;;;29.34;38.85;99988.38;5073214;28;20024;-28
2022/09/30 10:22:48;;;;;;;4.70;3.20;;;;;;;29.61;37.04;99973.03;5073106;28;20037;-28
2022/09/30 10:25:13;;;;;;;10.05;4.20;;;;;;;29.44;37.46;99989.81;5071605;28;20823;-29
2022/09/30 10:27:59;;;;;;;9.30;3.33;;;;;;;29.69;37.16;99992.47;5072812;28;20032;-32
2022/09/30 10:30:39;;;;;;;8.90;3.30;;;;;;;29.71;37.66;99992.94;5070735;28;20024;-32
2022/09/30 10:33:14;;;;;;;5.35;3.28;;;;;;;29.86;36.64;99978.47;5069858;28;20246;-29
2022/09/30 10:36:10;;;;;;;6.22;3.40;;;;;;;29.80;35.04;99971.63;5052328;28;20025;-30
2022/09/30 10:38:44;;;;;;;7.22;4.03;;;;;;;29.61;35.93;99964.78;5070021;28;20111;-29
2022/09/30 10:41:10;;;;;;;5.57;3.40;;;;;;;29.96;35.03;99986.19;5051836;28;20447;-35
2022/09/30 10:43:43;;;;;;;4.85;2.90;;;;;;;30.13;32.70;99981.53;5069832;28;20039;-29
2022/09/30 10:46:09;;;;;;;4.35;2.95;;;;;;;30.12;34.64;99977.16;5069564;28;20020;-30
2022/09/30 10:48:37;;;;;;;6.68;3.42;;;;;;;30.56;33.47;99977.91;5070246;28;20135;-36
2022/09/30 10:51:16;;;;;;;6.57;3.50;;;;;;;30.70;32.93;99980.22;5069636;28;20032;-28
2022/09/30 10:53:42;;;;;;;6.45;3.10;;;;;;;30.77;32.73;99961.13;5069773;28;20480;-31
2022/09/30 10:56:08;;;;;;;5.72;3.33;;;;;;;30.72;33.16;99971.59;5069151;28;20021;-28
2022/09/30 10:58:44;;;;;;;6.80;3.60;;;;;;;30.72;33.30;99958.63;5069369;28;20688;-28
2022/09/30 11:01:27;;;;;;;5.28;3.35;;;;;;;30.89;33.41;99953.94;5051438;28;20028;-29
2022/09/30 11:04:15;;;;;;;6.07;3.00;;;;;;;31.37;32.46;99960.09;5069221;28;20041;-29
2022/09/30 11:06:45;;;;;;;6.65;3.33;;;;;;;31.34;32.98;99952.53;5069397;28;20048;-33
2022/09/30 11:09:19;;;;;;;5.68;3.13;;;;;;;30.98;32.11;99968.31;5069218;28;20408;-33
2022/09/30 11:11:52;;;;;;;6.97;3.65;;;;;;;30.92;33.15;99975.25;5069224;28;20028;-28
2022/09/30 11:14:29;;;;;;;5.28;3.40;;;;;;;30.99;34.42;99942.34;5069334;28;20479;-28
2022/09/30 11:17:09;;;;;;;15.63;5.32;;;;;;;31.33;32.92;99964.72;5069085;28;20063;-31
2022/09/30 11:19:43;;;;;;;4.75;2.60;;;;;;;31.28;30.81;99959.50;5050987;28;20381;-28
2022/09/30 11:22:27;;;;;;;7.45;2.85;;;;;;;31.11;32.27;99961.50;5069003;28;20032;-28
2022/09/30 11:24:54;;;;;;;5.00;2.53;;;;;;;31.84;30.26;99959.06;5069306;28;20032;-33
2022/09/30 11:27:38;;;;;;;6.70;2.75;;;;;;;31.55;31.00;99968.75;5069244;28;20024;-29
2022/09/30 11:30:22;;;;;;;5.30;2.60;;;;;;;31.60;31.67;99944.44;5068848;28;20028;-28
2022/09/30 11:33:09;;;;;;;6.00;2.70;;;;;;;31.14;30.79;99954.47;5069197;28;20491;-28
2022/09/30 11:35:58;;;;;;;4.25;2.80;;;;;;;31.51;31.40;99954.09;5069155;28;20063;-36
2022/09/30 11:38:32;;;;;;;4.68;3.25;;;;;;;31.39;31.37;99938.47;5068612;28;20071;-30
2022/09/30 11:41:07;;;;;;;6.25;2.53;;;;;;;31.64;31.66;99958.28;5068991;28;20039;-33
2022/09/30 11:43:53;;;;;;;5.68;2.78;;;;;;;31.63;29.97;99948.44;5068475;28;20476;-29
2022/09/30 11:46:37;;;;;;;3.47;2.33;;;;;;;31.59;31.29;99951.13;5068396;28;20116;-29
2022/09/30 11:49:02;;;;;;;3.75;2.28;;;;;;;31.82;29.67;99948.41;5050595;28;20036;-32
2022/09/30 11:52:19;;;;;;;4.50;2.10;;;;;;;31.52;29.39;99950.97;5068592;28;20086;-31
2022/09/30 11:55:25;;;;;;;6.90;2.30;;;;;;;31.96;30.39;99928.56;5034129;28;20575;-29
2022/09/30 11:57:57;;;;;;;;;;;;;;;32.07;29.93;99944.53;5030436;28;20115;-28